sensor_id;sensor_type;location;lat;lon;timestamp;P1;durP1;ratioP1;P2;durP2;ratioP2
4430;SDS011;2228;48.140;11.488;2023-06-19T00:01:13;10.75;;;8.40;;
4430;SDS011;2228;48.140;11.488;2023-06-19T00:03:40;11.57;;;8.70;;
4430;SDS011;2228;48.140;11.488;2023-06-19T00:06:07;9.70;;;8.10;;
4430;SDS011;2228;48.140;11.488;2023-06-19T00:08:34;9.50;;;8.32;;
4430;SDS011;2228;48.140;11.488;2023-06-19T00:11:02;13.87;;;9.00;;
4430;SDS011;2228;48.140;11.488;2023-06-19T00:13:29;13.27;;;9.15;;
4430;SDS011;2228;48.140;11.488;2023-06-19T00:15:57;11.82;;;8.50;;
4430;SDS011;2228;48.140;11.488;2023-06-19T00:18:26;10.20;;;7.85;;
4430;SDS011;2228;48.140;11.488;2023-06-19T00:20:53;11.50;;;8.80;;
4430;SDS011;2228;48.140;11.488;2023-06-19T00:23:21;13.85;;;9.60;;
4430;SDS011;2228;48.140;11.488;2023-06-19T00:25:48;12.55;;;8.52;;
4430;SDS011;2228;48.140;11.488;2023-06-19T00:28:15;13.73;;;9.40;;
4430;SDS011;2228;48.140;11.488;2023-06-19T00:30:45;10.73;;;7.78;;
4430;SDS011;2228;48.140;11.488;2023-06-19T00:33:13;12.25;;;8.20;;
4430;SDS011;2228;48.140;11.488;2023-06-19T00:35:40;10.82;;;8.40;;
4430;SDS011;2228;48.140;11.488;2023-06-19T00:38:07;9.90;;;7.87;;
4430;SDS011;2228;48.140;11.488;2023-06-19T00:40:34;11.35;;;8.50;;
4430;SDS011;2228;48.140;11.488;2023-06-19T00:43:01;12.68;;;8.35;;
4430;SDS011;2228;48.140;11.488;2023-06-19T00:45:28;10.65;;;8.40;;
4430;SDS011;2228;48.140;11.488;2023-06-19T00:47:56;10.98;;;8.73;;
4430;SDS011;2228;48.140;11.488;2023-06-19T00:50:26;11.10;;;8.30;;
4430;SDS011;2228;48.140;11.488;2023-06-19T00:52:55;9.93;;;8.37;;
4430;SDS011;2228;48.140;11.488;2023-06-19T00:55:22;11.30;;;8.27;;
4430;SDS011;2228;48.140;11.488;2023-06-19T00:57:51;8.73;;;7.47;;
4430;SDS011;2228;48.140;11.488;2023-06-19T01:00:19;8.50;;;7.40;;
4430;SDS011;2228;48.140;11.488;2023-06-19T01:02:46;11.02;;;8.80;;
4430;SDS011;2228;48.140;11.488;2023-06-19T01:05:13;9.48;;;7.90;;
4430;SDS011;2228;48.140;11.488;2023-06-19T01:07:44;9.93;;;8.20;;
4430;SDS011;2228;48.140;11.488;2023-06-19T01:10:16;9.88;;;7.82;;
4430;SDS011;2228;48.140;11.488;2023-06-19T01:12:47;10.10;;;7.95;;
4430;SDS011;2228;48.140;11.488;2023-06-19T01:15:18;9.77;;;7.60;;
4430;SDS011;2228;48.140;11.488;2023-06-19T01:17:47;10.18;;;8.20;;
4430;SDS011;2228;48.140;11.488;2023-06-19T01:20:15;10.57;;;7.75;;
4430;SDS011;2228;48.140;11.488;2023-06-19T01:22:44;9.52;;;7.90;;
4430;SDS011;2228;48.140;11.488;2023-06-19T01:25:11;10.40;;;8.30;;
4430;SDS011;2228;48.140;11.488;2023-06-19T01:27:39;11.90;;;8.68;;
4430;SDS011;2228;48.140;11.488;2023-06-19T01:30:07;9.30;;;7.57;;
4430;SDS011;2228;48.140;11.488;2023-06-19T01:32:39;12.77;;;9.35;;
4430;SDS011;2228;48.140;11.488;2023-06-19T01:35:12;10.65;;;8.43;;
4430;SDS011;2228;48.140;11.488;2023-06-19T01:37:41;17.20;;;9.23;;
4430;SDS011;2228;48.140;11.488;2023-06-19T01:40:11;10.73;;;8.93;;
4430;SDS011;2228;48.140;11.488;2023-06-19T01:42:40;14.00;;;9.00;;
4430;SDS011;2228;48.140;11.488;2023-06-19T01:45:08;10.15;;;8.88;;
4430;SDS011;2228;48.140;11.488;2023-06-19T01:47:35;13.18;;;9.05;;
4430;SDS011;2228;48.140;11.488;2023-06-19T01:50:02;10.75;;;9.20;;
4430;SDS011;2228;48.140;11.488;2023-06-19T01:52:30;12.63;;;9.40;;
4430;SDS011;2228;48.140;11.488;2023-06-19T01:54:57;11.32;;;9.25;;
4430;SDS011;2228;48.140;11.488;2023-06-19T01:57:25;11.48;;;8.77;;
4430;SDS011;2228;48.140;11.488;2023-06-19T01:59:52;13.48;;;8.40;;
4430;SDS011;2228;48.140;11.488;2023-06-19T02:02:19;15.65;;;8.80;;
4430;SDS011;2228;48.140;11.488;2023-06-19T02:04:46;11.65;;;9.02;;
4430;SDS011;2228;48.140;11.488;2023-06-19T02:07:13;11.20;;;8.52;;
4430;SDS011;2228;48.140;11.488;2023-06-19T02:09:40;13.00;;;8.60;;
4430;SDS011;2228;48.140;11.488;2023-06-19T02:12:07;9.93;;;8.00;;
4430;SDS011;2228;48.140;11.488;2023-06-19T02:14:36;11.60;;;8.50;;
4430;SDS011;2228;48.140;11.488;2023-06-19T02:17:03;11.03;;;8.80;;
4430;SDS011;2228;48.140;11.488;2023-06-19T02:19:30;10.82;;;8.85;;
4430;SDS011;2228;48.140;11.488;2023-06-19T02:21:56;11.75;;;8.43;;
4430;SDS011;2228;48.140;11.488;2023-06-19T02:24:23;14.02;;;8.90;;
4430;SDS011;2228;48.140;11.488;2023-06-19T02:26:50;11.13;;;8.98;;
4430;SDS011;2228;48.140;11.488;2023-06-19T02:29:17;10.05;;;8.05;;
4430;SDS011;2228;48.140;11.488;2023-06-19T02:31:46;10.00;;;9.00;;
4430;SDS011;2228;48.140;11.488;2023-06-19T02:34:13;11.98;;;8.40;;
4430;SDS011;2228;48.140;11.488;2023-06-19T02:36:40;16.42;;;8.80;;
4430;SDS011;2228;48.140;11.488;2023-06-19T02:39:07;11.27;;;8.93;;
4430;SDS011;2228;48.140;11.488;2023-06-19T02:41:35;9.60;;;8.60;;
4430;SDS011;2228;48.140;11.488;2023-06-19T02:44:03;11.63;;;8.68;;
4430;SDS011;2228;48.140;11.488;2023-06-19T02:46:30;11.30;;;8.82;;
4430;SDS011;2228;48.140;11.488;2023-06-19T02:48:59;10.90;;;9.00;;
4430;SDS011;2228;48.140;11.488;2023-06-19T02:51:26;9.63;;;8.55;;
4430;SDS011;2228;48.140;11.488;2023-06-19T02:53:53;9.57;;;8.57;;
4430;SDS011;2228;48.140;11.488;2023-06-19T02:56:20;10.18;;;8.80;;
4430;SDS011;2228;48.140;11.488;2023-06-19T02:58:47;10.52;;;8.48;;
4430;SDS011;2228;48.140;11.488;2023-06-19T03:01:14;11.02;;;9.15;;
4430;SDS011;2228;48.140;11.488;2023-06-19T03:03:40;11.18;;;8.60;;
4430;SDS011;2228;48.140;11.488;2023-06-19T03:06:09;11.43;;;8.40;;
4430;SDS011;2228;48.140;11.488;2023-06-19T03:08:36;11.68;;;8.90;;
4430;SDS011;2228;48.140;11.488;2023-06-19T03:11:03;11.25;;;8.90;;
4430;SDS011;2228;48.140;11.488;2023-06-19T03:13:31;11.38;;;8.82;;
4430;SDS011;2228;48.140;11.488;2023-06-19T03:16:11;11.57;;;9.43;;
4430;SDS011;2228;48.140;11.488;2023-06-19T03:18:39;10.05;;;8.70;;
4430;SDS011;2228;48.140;11.488;2023-06-19T03:21:06;12.27;;;9.23;;
4430;SDS011;2228;48.140;11.488;2023-06-19T03:23:34;10.13;;;8.55;;
4430;SDS011;2228;48.140;11.488;2023-06-19T03:26:01;10.25;;;9.15;;
4430;SDS011;2228;48.140;11.488;2023-06-19T03:28:29;10.77;;;9.20;;
4430;SDS011;2228;48.140;11.488;2023-06-19T03:30:55;9.15;;;8.13;;
4430;SDS011;2228;48.140;11.488;2023-06-19T03:33:22;12.20;;;8.80;;
4430;SDS011;2228;48.140;11.488;2023-06-19T03:35:49;10.65;;;8.68;;
4430;SDS011;2228;48.140;11.488;2023-06-19T03:38:17;11.35;;;8.60;;
4430;SDS011;2228;48.140;11.488;2023-06-19T03:40:44;13.63;;;8.60;;
4430;SDS011;2228;48.140;11.488;2023-06-19T03:43:11;11.50;;;9.40;;
4430;SDS011;2228;48.140;11.488;2023-06-19T03:45:38;10.07;;;8.43;;
4430;SDS011;2228;48.140;11.488;2023-06-19T03:48:05;10.63;;;8.23;;
4430;SDS011;2228;48.140;11.488;2023-06-19T03:50:32;9.93;;;8.90;;
4430;SDS011;2228;48.140;11.488;2023-06-19T03:52:59;11.55;;;8.93;;
4430;SDS011;2228;48.140;11.488;2023-06-19T03:55:27;9.57;;;8.52;;
4430;SDS011;2228;48.140;11.488;2023-06-19T03:57:54;11.65;;;8.88;;
4430;SDS011;2228;48.140;11.488;2023-06-19T04:00:21;10.80;;;8.40;;
4430;SDS011;2228;48.140;11.488;2023-06-19T04:54:42;11.18;;;9.98;;
4430;SDS011;2228;48.140;11.488;2023-06-19T04:57:09;15.50;;;10.10;;
4430;SDS011;2228;48.140;11.488;2023-06-19T04:59:35;12.65;;;10.10;;
4430;SDS011;2228;48.140;11.488;2023-06-19T05:02:02;12.93;;;10.32;;
4430;SDS011;2228;48.140;11.488;2023-06-19T05:04:30;11.73;;;10.02;;
4430;SDS011;2228;48.140;11.488;2023-06-19T05:06:58;12.25;;;9.57;;
4430;SDS011;2228;48.140;11.488;2023-06-19T05:09:24;13.57;;;10.85;;
4430;SDS011;2228;48.140;11.488;2023-06-19T05:11:53;11.05;;;9.85;;
4430;SDS011;2228;48.140;11.488;2023-06-19T05:14:19;13.73;;;9.23;;
4430;SDS011;2228;48.140;11.488;2023-06-19T05:16:47;10.57;;;8.60;;
4430;SDS011;2228;48.140;11.488;2023-06-19T05:19:13;12.52;;;9.25;;
4430;SDS011;2228;48.140;11.488;2023-06-19T05:21:40;8.90;;;7.90;;
4430;SDS011;2228;48.140;11.488;2023-06-19T05:24:07;11.20;;;8.70;;
4430;SDS011;2228;48.140;11.488;2023-06-19T05:26:34;10.45;;;8.40;;
4430;SDS011;2228;48.140;11.488;2023-06-19T05:29:02;13.63;;;8.77;;
4430;SDS011;2228;48.140;11.488;2023-06-19T05:31:29;9.80;;;8.20;;
4430;SDS011;2228;48.140;11.488;2023-06-19T05:33:56;9.75;;;8.00;;
4430;SDS011;2228;48.140;11.488;2023-06-19T05:36:23;12.10;;;7.80;;
4430;SDS011;2228;48.140;11.488;2023-06-19T05:38:50;9.10;;;6.85;;
4430;SDS011;2228;48.140;11.488;2023-06-19T05:41:17;8.70;;;7.07;;
4430;SDS011;2228;48.140;11.488;2023-06-19T05:43:44;9.13;;;6.47;;
4430;SDS011;2228;48.140;11.488;2023-06-19T05:46:12;7.88;;;6.82;;
4430;SDS011;2228;48.140;11.488;2023-06-19T05:48:39;7.90;;;6.90;;
4430;SDS011;2228;48.140;11.488;2023-06-19T05:51:06;8.75;;;6.72;;
4430;SDS011;2228;48.140;11.488;2023-06-19T05:53:33;7.53;;;6.13;;
4430;SDS011;2228;48.140;11.488;2023-06-19T05:56:00;11.52;;;7.47;;
4430;SDS011;2228;48.140;11.488;2023-06-19T05:58:27;9.32;;;6.85;;
4430;SDS011;2228;48.140;11.488;2023-06-19T06:00:54;8.52;;;6.90;;
4430;SDS011;2228;48.140;11.488;2023-06-19T06:03:24;8.52;;;6.28;;
4430;SDS011;2228;48.140;11.488;2023-06-19T06:05:51;9.20;;;6.95;;
4430;SDS011;2228;48.140;11.488;2023-06-19T06:08:18;10.60;;;7.07;;
4430;SDS011;2228;48.140;11.488;2023-06-19T06:10:45;12.02;;;6.75;;
4430;SDS011;2228;48.140;11.488;2023-06-19T06:13:12;8.35;;;7.00;;
4430;SDS011;2228;48.140;11.488;2023-06-19T06:15:39;11.75;;;7.22;;
4430;SDS011;2228;48.140;11.488;2023-06-19T06:18:06;10.80;;;6.88;;
4430;SDS011;2228;48.140;11.488;2023-06-19T06:20:34;9.07;;;6.70;;
4430;SDS011;2228;48.140;11.488;2023-06-19T06:23:01;9.90;;;6.40;;
4430;SDS011;2228;48.140;11.488;2023-06-19T06:25:28;8.43;;;6.93;;
4430;SDS011;2228;48.140;11.488;2023-06-19T06:27:55;11.20;;;7.03;;
4430;SDS011;2228;48.140;11.488;2023-06-19T06:30:22;10.50;;;6.90;;
4430;SDS011;2228;48.140;11.488;2023-06-19T06:32:50;9.63;;;6.53;;
4430;SDS011;2228;48.140;11.488;2023-06-19T06:35:17;7.28;;;6.25;;
4430;SDS011;2228;48.140;11.488;2023-06-19T06:37:45;11.70;;;6.57;;
4430;SDS011;2228;48.140;11.488;2023-06-19T06:40:15;10.05;;;6.18;;
4430;SDS011;2228;48.140;11.488;2023-06-19T06:42:42;6.75;;;6.15;;
4430;SDS011;2228;48.140;11.488;2023-06-19T06:45:09;8.38;;;6.13;;
4430;SDS011;2228;48.140;11.488;2023-06-19T06:47:37;8.03;;;5.90;;
4430;SDS011;2228;48.140;11.488;2023-06-19T06:50:05;9.15;;;5.70;;
4430;SDS011;2228;48.140;11.488;2023-06-19T06:52:33;8.65;;;5.40;;
4430;SDS011;2228;48.140;11.488;2023-06-19T06:55:03;6.30;;;5.70;;
4430;SDS011;2228;48.140;11.488;2023-06-19T06:57:31;7.00;;;5.63;;
4430;SDS011;2228;48.140;11.488;2023-06-19T06:59:58;8.02;;;5.95;;
4430;SDS011;2228;48.140;11.488;2023-06-19T07:02:26;9.70;;;6.40;;
4430;SDS011;2228;48.140;11.488;2023-06-19T07:04:54;7.70;;;6.30;;
4430;SDS011;2228;48.140;11.488;2023-06-19T07:07:21;7.30;;;6.13;;
4430;SDS011;2228;48.140;11.488;2023-06-19T07:09:48;8.45;;;5.68;;
4430;SDS011;2228;48.140;11.488;2023-06-19T07:12:17;6.57;;;5.90;;
4430;SDS011;2228;48.140;11.488;2023-06-19T07:14:44;7.93;;;5.80;;
4430;SDS011;2228;48.140;11.488;2023-06-19T07:17:11;7.03;;;5.75;;
4430;SDS011;2228;48.140;11.488;2023-06-19T07:19:38;6.75;;;5.57;;
4430;SDS011;2228;48.140;11.488;2023-06-19T07:22:05;9.00;;;5.53;;
4430;SDS011;2228;48.140;11.488;2023-06-19T07:24:32;6.43;;;5.30;;
4430;SDS011;2228;48.140;11.488;2023-06-19T07:26:59;5.90;;;5.30;;
4430;SDS011;2228;48.140;11.488;2023-06-19T07:29:28;5.97;;;5.38;;
4430;SDS011;2228;48.140;11.488;2023-06-19T07:31:57;6.40;;;5.13;;
4430;SDS011;2228;48.140;11.488;2023-06-19T07:34:26;5.80;;;5.20;;
4430;SDS011;2228;48.140;11.488;2023-06-19T07:36:55;6.60;;;4.80;;
4430;SDS011;2228;48.140;11.488;2023-06-19T07:39:22;6.85;;;4.95;;
4430;SDS011;2228;48.140;11.488;2023-06-19T07:41:50;6.00;;;4.30;;
4430;SDS011;2228;48.140;11.488;2023-06-19T07:44:17;5.38;;;4.88;;
4430;SDS011;2228;48.140;11.488;2023-06-19T07:46:47;5.00;;;4.50;;
4430;SDS011;2228;48.140;11.488;2023-06-19T07:49:14;5.40;;;4.70;;
4430;SDS011;2228;48.140;11.488;2023-06-19T07:51:41;8.25;;;4.80;;
4430;SDS011;2228;48.140;11.488;2023-06-19T07:54:08;7.40;;;4.63;;
4430;SDS011;2228;48.140;11.488;2023-06-19T07:56:35;7.40;;;4.93;;
4430;SDS011;2228;48.140;11.488;2023-06-19T07:59:02;6.38;;;4.80;;
4430;SDS011;2228;48.140;11.488;2023-06-19T08:01:29;5.65;;;4.30;;
4430;SDS011;2228;48.140;11.488;2023-06-19T08:03:58;8.70;;;4.85;;
4430;SDS011;2228;48.140;11.488;2023-06-19T08:06:25;6.32;;;4.55;;
4430;SDS011;2228;48.140;11.488;2023-06-19T08:08:52;5.40;;;4.60;;
4430;SDS011;2228;48.140;11.488;2023-06-19T08:11:19;6.38;;;4.35;;
4430;SDS011;2228;48.140;11.488;2023-06-19T08:13:46;7.43;;;4.72;;
4430;SDS011;2228;48.140;11.488;2023-06-19T08:16:15;5.20;;;4.50;;
4430;SDS011;2228;48.140;11.488;2023-06-19T08:18:43;6.20;;;4.50;;
4430;SDS011;2228;48.140;11.488;2023-06-19T08:21:12;6.63;;;4.43;;
4430;SDS011;2228;48.140;11.488;2023-06-19T08:23:39;5.00;;;4.40;;
4430;SDS011;2228;48.140;11.488;2023-06-19T08:26:08;4.80;;;4.40;;
4430;SDS011;2228;48.140;11.488;2023-06-19T08:28:35;4.63;;;4.22;;
4430;SDS011;2228;48.140;11.488;2023-06-19T08:31:03;8.75;;;4.50;;
4430;SDS011;2228;48.140;11.488;2023-06-19T08:33:30;4.85;;;4.35;;
4430;SDS011;2228;48.140;11.488;2023-06-19T08:35:57;6.93;;;4.10;;
4430;SDS011;2228;48.140;11.488;2023-06-19T08:38:25;5.60;;;4.55;;
4430;SDS011;2228;48.140;11.488;2023-06-19T08:40:53;5.45;;;4.60;;
4430;SDS011;2228;48.140;11.488;2023-06-19T08:43:20;6.95;;;4.40;;
4430;SDS011;2228;48.140;11.488;2023-06-19T08:45:52;5.20;;;4.30;;
4430;SDS011;2228;48.140;11.488;2023-06-19T08:48:25;6.90;;;4.75;;
4430;SDS011;2228;48.140;11.488;2023-06-19T08:50:52;5.43;;;3.40;;
4430;SDS011;2228;48.140;11.488;2023-06-19T08:53:19;4.50;;;2.90;;
4430;SDS011;2228;48.140;11.488;2023-06-19T08:55:48;4.85;;;2.90;;
4430;SDS011;2228;48.140;11.488;2023-06-19T15:35:51;3.40;;;3.05;;
4430;SDS011;2228;48.140;11.488;2023-06-19T15:38:18;3.03;;;2.72;;
4430;SDS011;2228;48.140;11.488;2023-06-19T15:40:45;3.90;;;3.58;;
4430;SDS011;2228;48.140;11.488;2023-06-19T15:43:12;3.20;;;2.95;;
4430;SDS011;2228;48.140;11.488;2023-06-19T15:45:39;3.43;;;3.13;;
4430;SDS011;2228;48.140;11.488;2023-06-19T15:48:06;4.00;;;3.60;;
4430;SDS011;2228;48.140;11.488;2023-06-19T15:50:35;4.00;;;3.30;;
4430;SDS011;2228;48.140;11.488;2023-06-19T15:53:02;3.35;;;2.83;;
4430;SDS011;2228;48.140;11.488;2023-06-19T15:55:29;4.32;;;3.30;;
4430;SDS011;2228;48.140;11.488;2023-06-19T15:57:56;4.90;;;2.70;;
4430;SDS011;2228;48.140;11.488;2023-06-19T16:00:24;3.80;;;3.50;;
4430;SDS011;2228;48.140;11.488;2023-06-19T16:02:51;9.80;;;3.20;;
4430;SDS011;2228;48.140;11.488;2023-06-19T16:05:18;3.08;;;2.85;;
4430;SDS011;2228;48.140;11.488;2023-06-19T16:07:47;3.50;;;2.88;;
4430;SDS011;2228;48.140;11.488;2023-06-19T16:10:14;6.20;;;3.30;;
4430;SDS011;2228;48.140;11.488;2023-06-19T16:12:41;3.50;;;3.20;;
4430;SDS011;2228;48.140;11.488;2023-06-19T16:15:08;3.70;;;3.30;;
4430;SDS011;2228;48.140;11.488;2023-06-19T16:17:38;4.25;;;3.10;;
4430;SDS011;2228;48.140;11.488;2023-06-19T16:20:05;3.35;;;3.05;;
4430;SDS011;2228;48.140;11.488;2023-06-19T16:22:33;4.88;;;3.10;;
4430;SDS011;2228;48.140;11.488;2023-06-19T16:25:01;3.65;;;3.00;;
4430;SDS011;2228;48.140;11.488;2023-06-19T16:27:28;3.20;;;2.95;;
4430;SDS011;2228;48.140;11.488;2023-06-19T16:29:55;3.35;;;3.05;;
4430;SDS011;2228;48.140;11.488;2023-06-19T16:32:22;3.30;;;2.70;;
4430;SDS011;2228;48.140;11.488;2023-06-19T16:34:49;4.00;;;3.00;;
4430;SDS011;2228;48.140;11.488;2023-06-19T16:37:16;3.80;;;2.80;;
4430;SDS011;2228;48.140;11.488;2023-06-19T16:39:43;3.33;;;3.00;;
4430;SDS011;2228;48.140;11.488;2023-06-19T16:42:11;2.95;;;2.70;;
4430;SDS011;2228;48.140;11.488;2023-06-19T16:44:40;2.90;;;2.70;;
4430;SDS011;2228;48.140;11.488;2023-06-19T16:47:07;2.80;;;2.60;;
4430;SDS011;2228;48.140;11.488;2023-06-19T16:49:34;3.40;;;2.50;;
4430;SDS011;2228;48.140;11.488;2023-06-19T16:52:01;3.10;;;2.80;;
4430;SDS011;2228;48.140;11.488;2023-06-19T16:54:28;3.10;;;2.90;;
4430;SDS011;2228;48.140;11.488;2023-06-19T16:56:55;3.20;;;3.00;;
4430;SDS011;2228;48.140;11.488;2023-06-19T16:59:24;3.80;;;3.50;;
4430;SDS011;2228;48.140;11.488;2023-06-19T17:01:51;3.70;;;2.85;;
4430;SDS011;2228;48.140;11.488;2023-06-19T17:04:18;3.30;;;3.00;;
4430;SDS011;2228;48.140;11.488;2023-06-19T17:06:45;3.15;;;2.95;;
4430;SDS011;2228;48.140;11.488;2023-06-19T17:09:16;3.60;;;2.80;;
4430;SDS011;2228;48.140;11.488;2023-06-19T17:11:43;5.38;;;3.33;;
4430;SDS011;2228;48.140;11.488;2023-06-19T17:14:11;4.80;;;3.20;;
4430;SDS011;2228;48.140;11.488;2023-06-19T17:16:39;4.30;;;3.70;;
4430;SDS011;2228;48.140;11.488;2023-06-19T17:19:07;5.28;;;3.75;;
4430;SDS011;2228;48.140;11.488;2023-06-19T17:21:34;4.88;;;4.38;;
4430;SDS011;2228;48.140;11.488;2023-06-19T17:24:01;3.85;;;3.55;;
4430;SDS011;2228;48.140;11.488;2023-06-19T17:26:28;5.63;;;3.30;;
4430;SDS011;2228;48.140;11.488;2023-06-19T17:28:55;3.60;;;3.40;;
4430;SDS011;2228;48.140;11.488;2023-06-19T17:31:23;5.03;;;2.93;;
4430;SDS011;2228;48.140;11.488;2023-06-19T17:33:51;5.15;;;3.33;;
4430;SDS011;2228;48.140;11.488;2023-06-19T17:36:19;3.67;;;3.38;;
4430;SDS011;2228;48.140;11.488;2023-06-19T17:38:46;3.47;;;3.17;;
4430;SDS011;2228;48.140;11.488;2023-06-19T17:41:13;4.60;;;4.20;;
4430;SDS011;2228;48.140;11.488;2023-06-19T17:43:40;3.47;;;3.10;;
4430;SDS011;2228;48.140;11.488;2023-06-19T17:46:09;3.90;;;3.60;;
4430;SDS011;2228;48.140;11.488;2023-06-19T17:48:37;5.50;;;3.53;;
4430;SDS011;2228;48.140;11.488;2023-06-19T17:51:07;4.85;;;3.20;;
4430;SDS011;2228;48.140;11.488;2023-06-19T17:53:34;4.25;;;3.40;;
4430;SDS011;2228;48.140;11.488;2023-06-19T17:56:02;5.28;;;3.60;;
4430;SDS011;2228;48.140;11.488;2023-06-19T17:58:29;3.97;;;3.50;;
4430;SDS011;2228;48.140;11.488;2023-06-19T18:00:57;6.13;;;3.47;;
4430;SDS011;2228;48.140;11.488;2023-06-19T18:03:24;5.70;;;4.05;;
4430;SDS011;2228;48.140;11.488;2023-06-19T18:05:51;5.72;;;3.90;;
4430;SDS011;2228;48.140;11.488;2023-06-19T18:08:19;6.90;;;3.78;;
4430;SDS011;2228;48.140;11.488;2023-06-19T18:10:46;7.28;;;4.40;;
4430;SDS011;2228;48.140;11.488;2023-06-19T18:13:13;4.53;;;3.70;;
4430;SDS011;2228;48.140;11.488;2023-06-19T18:15:40;4.50;;;4.00;;
4430;SDS011;2228;48.140;11.488;2023-06-19T18:18:07;4.65;;;4.00;;
4430;SDS011;2228;48.140;11.488;2023-06-19T18:20:34;5.70;;;4.20;;
4430;SDS011;2228;48.140;11.488;2023-06-19T18:23:01;4.40;;;4.00;;
4430;SDS011;2228;48.140;11.488;2023-06-19T18:25:29;4.40;;;4.00;;
4430;SDS011;2228;48.140;11.488;2023-06-19T18:27:56;5.90;;;4.40;;
4430;SDS011;2228;48.140;11.488;2023-06-19T18:30:23;4.00;;;3.60;;
4430;SDS011;2228;48.140;11.488;2023-06-19T18:32:50;4.90;;;4.13;;
4430;SDS011;2228;48.140;11.488;2023-06-19T18:35:17;4.35;;;3.97;;
4430;SDS011;2228;48.140;11.488;2023-06-19T18:37:44;4.57;;;3.65;;
4430;SDS011;2228;48.140;11.488;2023-06-19T18:40:11;4.63;;;4.20;;
4430;SDS011;2228;48.140;11.488;2023-06-19T18:42:39;8.90;;;4.50;;
4430;SDS011;2228;48.140;11.488;2023-06-19T18:45:07;7.10;;;4.47;;
4430;SDS011;2228;48.140;11.488;2023-06-19T18:47:34;9.18;;;4.55;;
4430;SDS011;2228;48.140;11.488;2023-06-19T18:50:01;4.90;;;4.00;;
4430;SDS011;2228;48.140;11.488;2023-06-19T18:52:29;5.82;;;4.22;;
4430;SDS011;2228;48.140;11.488;2023-06-19T18:54:56;4.80;;;4.30;;
4430;SDS011;2228;48.140;11.488;2023-06-19T18:57:23;5.60;;;4.25;;
4430;SDS011;2228;48.140;11.488;2023-06-19T18:59:55;6.65;;;4.20;;
4430;SDS011;2228;48.140;11.488;2023-06-19T19:02:22;6.63;;;4.38;;
4430;SDS011;2228;48.140;11.488;2023-06-19T19:04:49;5.50;;;4.00;;
4430;SDS011;2228;48.140;11.488;2023-06-19T19:07:16;6.32;;;4.88;;
4430;SDS011;2228;48.140;11.488;2023-06-19T19:09:44;5.50;;;4.37;;
4430;SDS011;2228;48.140;11.488;2023-06-19T19:12:12;6.35;;;4.80;;
4430;SDS011;2228;48.140;11.488;2023-06-19T19:14:39;5.65;;;4.88;;
4430;SDS011;2228;48.140;11.488;2023-06-19T19:17:07;8.00;;;5.32;;
4430;SDS011;2228;48.140;11.488;2023-06-19T19:19:34;7.20;;;5.13;;
4430;SDS011;2228;48.140;11.488;2023-06-19T19:22:02;8.20;;;5.40;;
4430;SDS011;2228;48.140;11.488;2023-06-19T19:24:29;6.87;;;5.60;;
4430;SDS011;2228;48.140;11.488;2023-06-19T19:26:56;5.63;;;5.03;;
4430;SDS011;2228;48.140;11.488;2023-06-19T19:29:23;5.80;;;5.20;;
4430;SDS011;2228;48.140;11.488;2023-06-19T19:31:50;8.68;;;5.90;;
4430;SDS011;2228;48.140;11.488;2023-06-19T19:34:18;6.43;;;5.80;;
4430;SDS011;2228;48.140;11.488;2023-06-19T19:36:45;6.60;;;6.00;;
4430;SDS011;2228;48.140;11.488;2023-06-19T19:39:12;8.90;;;6.30;;
4430;SDS011;2228;48.140;11.488;2023-06-19T19:41:39;8.73;;;5.93;;
4430;SDS011;2228;48.140;11.488;2023-06-19T19:44:09;7.03;;;6.20;;
4430;SDS011;2228;48.140;11.488;2023-06-19T19:46:36;7.22;;;6.18;;
4430;SDS011;2228;48.140;11.488;2023-06-19T19:49:04;8.10;;;6.20;;
4430;SDS011;2228;48.140;11.488;2023-06-19T19:51:32;8.43;;;6.30;;
4430;SDS011;2228;48.140;11.488;2023-06-19T19:53:59;8.30;;;6.50;;
4430;SDS011;2228;48.140;11.488;2023-06-19T19:56:26;8.65;;;6.53;;
4430;SDS011;2228;48.140;11.488;2023-06-19T19:58:53;9.07;;;7.35;;
4430;SDS011;2228;48.140;11.488;2023-06-19T20:01:20;9.40;;;6.87;;
4430;SDS011;2228;48.140;11.488;2023-06-19T20:03:47;8.85;;;7.00;;
4430;SDS011;2228;48.140;11.488;2023-06-19T20:06:14;10.95;;;6.93;;
4430;SDS011;2228;48.140;11.488;2023-06-19T20:08:43;8.60;;;7.70;;
4430;SDS011;2228;48.140;11.488;2023-06-19T20:11:10;9.13;;;7.50;;
4430;SDS011;2228;48.140;11.488;2023-06-19T20:13:37;8.77;;;7.50;;
4430;SDS011;2228;48.140;11.488;2023-06-19T20:16:04;9.73;;;7.45;;
4430;SDS011;2228;48.140;11.488;2023-06-19T20:18:34;8.00;;;7.15;;
4430;SDS011;2228;48.140;11.488;2023-06-19T20:21:01;9.70;;;7.45;;
4430;SDS011;2228;48.140;11.488;2023-06-19T20:23:28;9.83;;;7.90;;
4430;SDS011;2228;48.140;11.488;2023-06-19T20:25:56;10.57;;;7.60;;
4430;SDS011;2228;48.140;11.488;2023-06-19T20:28:23;10.63;;;8.02;;
4430;SDS011;2228;48.140;11.488;2023-06-19T20:30:50;11.00;;;8.10;;
4430;SDS011;2228;48.140;11.488;2023-06-19T20:33:19;11.73;;;8.43;;
4430;SDS011;2228;48.140;11.488;2023-06-19T20:35:46;12.60;;;9.20;;
4430;SDS011;2228;48.140;11.488;2023-06-19T20:38:13;12.15;;;8.27;;
4430;SDS011;2228;48.140;11.488;2023-06-19T20:40:40;9.77;;;8.20;;
4430;SDS011;2228;48.140;11.488;2023-06-19T20:43:09;11.13;;;9.10;;
4430;SDS011;2228;48.140;11.488;2023-06-19T20:45:37;8.65;;;7.63;;
4430;SDS011;2228;48.140;11.488;2023-06-19T20:48:05;9.35;;;8.45;;
4430;SDS011;2228;48.140;11.488;2023-06-19T20:50:32;9.90;;;7.90;;
4430;SDS011;2228;48.140;11.488;2023-06-19T20:52:59;11.23;;;8.40;;
4430;SDS011;2228;48.140;11.488;2023-06-19T20:55:26;10.20;;;8.50;;
4430;SDS011;2228;48.140;11.488;2023-06-19T20:57:53;9.27;;;8.38;;
4430;SDS011;2228;48.140;11.488;2023-06-19T21:00:23;11.23;;;8.48;;
4430;SDS011;2228;48.140;11.488;2023-06-19T21:02:50;10.88;;;7.65;;
4430;SDS011;2228;48.140;11.488;2023-06-19T21:05:17;9.25;;;8.10;;
4430;SDS011;2228;48.140;11.488;2023-06-19T21:07:44;9.13;;;6.68;;
4430;SDS011;2228;48.140;11.488;2023-06-19T21:10:12;12.97;;;6.60;;
4430;SDS011;2228;48.140;11.488;2023-06-19T21:12:39;8.35;;;7.50;;
4430;SDS011;2228;48.140;11.488;2023-06-19T21:15:06;10.88;;;5.90;;
4430;SDS011;2228;48.140;11.488;2023-06-19T21:17:35;8.40;;;4.72;;
4430;SDS011;2228;48.140;11.488;2023-06-19T21:20:02;6.20;;;4.70;;
4430;SDS011;2228;48.140;11.488;2023-06-19T21:22:34;6.50;;;3.78;;
4430;SDS011;2228;48.140;11.488;2023-06-19T21:25:01;5.60;;;3.55;;
4430;SDS011;2228;48.140;11.488;2023-06-19T21:27:28;5.88;;;3.10;;
4430;SDS011;2228;48.140;11.488;2023-06-19T21:29:55;4.13;;;2.70;;
4430;SDS011;2228;48.140;11.488;2023-06-19T21:32:22;7.68;;;3.00;;
4430;SDS011;2228;48.140;11.488;2023-06-19T21:34:50;4.73;;;2.20;;
4430;SDS011;2228;48.140;11.488;2023-06-19T21:37:17;4.03;;;2.25;;
4430;SDS011;2228;48.140;11.488;2023-06-19T21:39:44;5.65;;;2.53;;
4430;SDS011;2228;48.140;11.488;2023-06-19T21:42:11;7.90;;;2.08;;
4430;SDS011;2228;48.140;11.488;2023-06-19T21:44:38;2.10;;;1.67;;
4430;SDS011;2228;48.140;11.488;2023-06-19T21:47:05;3.08;;;2.03;;
4430;SDS011;2228;48.140;11.488;2023-06-19T21:49:32;4.47;;;1.60;;
4430;SDS011;2228;48.140;11.488;2023-06-19T21:52:00;5.38;;;1.40;;
4430;SDS011;2228;48.140;11.488;2023-06-19T21:54:28;4.10;;;1.70;;
4430;SDS011;2228;48.140;11.488;2023-06-19T21:56:54;2.53;;;1.80;;
4430;SDS011;2228;48.140;11.488;2023-06-19T21:59:21;3.58;;;1.65;;
4430;SDS011;2228;48.140;11.488;2023-06-19T22:01:48;4.70;;;2.08;;
4430;SDS011;2228;48.140;11.488;2023-06-19T22:04:15;6.05;;;2.10;;
4430;SDS011;2228;48.140;11.488;2023-06-19T22:06:42;4.65;;;2.38;;
4430;SDS011;2228;48.140;11.488;2023-06-19T22:09:11;2.22;;;2.03;;
4430;SDS011;2228;48.140;11.488;2023-06-19T22:11:38;4.28;;;2.58;;
4430;SDS011;2228;48.140;11.488;2023-06-19T22:14:05;3.80;;;3.05;;
4430;SDS011;2228;48.140;11.488;2023-06-19T22:16:32;5.78;;;2.88;;
4430;SDS011;2228;48.140;11.488;2023-06-19T22:18:59;7.00;;;3.17;;
4430;SDS011;2228;48.140;11.488;2023-06-19T22:21:27;3.92;;;2.70;;
4430;SDS011;2228;48.140;11.488;2023-06-19T22:23:54;4.55;;;2.60;;
4430;SDS011;2228;48.140;11.488;2023-06-19T22:26:23;4.47;;;2.50;;
4430;SDS011;2228;48.140;11.488;2023-06-19T22:28:50;4.88;;;2.65;;